Time;durP1;ratioP1;P1;durP2;ratioP2;P2;SDS_P1;SDS_P2;PMS_P1;PMS_P2;Temp;Humidity;BMP_temperature;BMP_pressure;BME280_temperature;BME280_humidity;BME280_pressure;Samples;Min_cycle;Max_cycle;Signal;HPM_P1;HPM_P2
2021/12/26 00:00:54;;;;;;;0.03;0.03;;;;;;;3.98;100.00;99285.66;4954013;29;20078;-81
2021/12/26 00:03:23;;;;;;;0.10;0.10;;;;;;;4.01;100.00;99279.78;4938631;28;20131;-81
2021/12/26 00:05:53;;;;;;;0.20;0.10;;;;;;;4.01;100.00;99284.00;4947603;29;20083;-80
2021/12/26 00:08:24;;;;;;;0.70;0.50;;;;;;;3.99;100.00;99282.28;4934588;29;20043;-78
2021/12/26 00:10:53;;;;;;;0.40;0.15;;;;;;;3.99;100.00;99286.53;4939555;29;20505;-84
2021/12/26 00:13:22;;;;;;;0.38;0.20;;;;;;;3.95;100.00;99280.44;4956058;28;20429;-79
2021/12/26 00:15:51;;;;;;;0.25;0.25;;;;;;;3.82;100.00;99280.88;4939812;28;20094;-83
2021/12/26 00:18:19;;;;;;;0.65;0.13;;;;;;;3.81;100.00;99285.94;4942385;28;20082;-81
2021/12/26 00:20:48;;;;;;;0.30;0.10;;;;;;;3.81;100.00;99281.69;4948588;29;20044;-83
2021/12/26 00:23:17;;;;;;;0.20;0.13;;;;;;;3.78;100.00;99282.47;4942253;29;20055;-85
2021/12/26 00:25:48;;;;;;;0.52;0.15;;;;;;;3.73;100.00;99280.56;4937148;29;20503;-79
2021/12/26 00:28:16;;;;;;;0.00;0.00;;;;;;;3.71;100.00;99277.97;4939175;29;20497;-82
2021/12/26 00:30:45;;;;;;;0.10;0.10;;;;;;;3.68;100.00;99284.66;4933601;29;20048;-79
2021/12/26 00:33:15;;;;;;;0.40;0.22;;;;;;;3.71;100.00;99279.63;4947447;29;20047;-83
2021/12/26 00:35:43;;;;;;;7.95;4.43;;;;;;;3.77;100.00;99275.59;4921010;29;20051;-80
2021/12/26 00:38:13;;;;;;;0.75;0.10;;;;;;;3.80;100.00;99279.94;4934075;29;20048;-81
2021/12/26 00:40:42;;;;;;;0.90;0.17;;;;;;;3.77;100.00;99279.84;4937886;29;20059;-79
2021/12/26 00:43:12;;;;;;;0.03;0.03;;;;;;;3.77;100.00;99274.72;4952262;28;20552;-81
2021/12/26 00:45:48;;;;;;;1.30;0.00;;;;;;;3.75;100.00;99282.34;4949985;28;20058;-78
2021/12/26 00:48:17;;;;;;;0.43;0.10;;;;;;;3.72;100.00;99276.28;4951902;28;20114;-77
2021/12/26 00:50:46;;;;;;;0.10;0.10;;;;;;;3.70;100.00;99271.09;4963555;28;20195;-76
2021/12/26 00:53:14;;;;;;;0.00;0.00;;;;;;;3.69;100.00;99269.38;4974549;28;20051;-77
2021/12/26 00:55:43;;;;;;;0.10;0.10;;;;;;;3.72;100.00;99271.16;4960274;28;20079;-78
2021/12/26 00:58:14;;;;;;;2.22;1.30;;;;;;;3.71;100.00;99274.53;4962354;28;20117;-77
2021/12/26 01:00:45;;;;;;;0.00;0.00;;;;;;;3.74;100.00;99272.09;4963152;28;20103;-75
2021/12/26 01:03:15;;;;;;;1.08;0.20;;;;;;;3.71;100.00;99269.41;4969007;28;20063;-79
2021/12/26 01:05:46;;;;;;;0.00;0.00;;;;;;;3.70;100.00;99268.53;4956117;28;20105;-78
2021/12/26 01:08:18;;;;;;;0.10;0.10;;;;;;;3.72;100.00;99266.03;4969437;28;20043;-78
2021/12/26 01:10:52;;;;;;;0.00;0.00;;;;;;;3.72;100.00;99268.59;4955741;28;20121;-80
2021/12/26 01:13:28;;;;;;;0.00;0.00;;;;;;;3.71;100.00;99259.19;4972182;28;20051;-80
2021/12/26 01:15:59;;;;;;;0.75;0.10;;;;;;;3.69;100.00;99253.16;4956476;28;20058;-78
2021/12/26 01:18:31;;;;;;;0.10;0.10;;;;;;;3.66;100.00;99258.16;4958627;28;20533;-79
2021/12/26 01:21:04;;;;;;;0.00;0.00;;;;;;;3.63;100.00;99265.75;4968902;28;20047;-79
2021/12/26 01:23:34;;;;;;;0.00;0.00;;;;;;;3.61;100.00;99252.03;4966826;28;20047;-76
2021/12/26 01:26:02;;;;;;;0.00;0.00;;;;;;;3.53;100.00;99249.22;4956447;28;20114;-78
2021/12/26 01:28:33;;;;;;;0.20;0.13;;;;;;;3.48;100.00;99258.41;4954186;28;20528;-79
2021/12/26 01:31:02;;;;;;;1.63;0.30;;;;;;;3.45;100.00;99266.84;4965287;28;20059;-75
2021/12/26 01:33:31;;;;;;;0.75;0.40;;;;;;;3.40;100.00;99270.94;4961514;28;20504;-81
2021/12/26 01:36:00;;;;;;;0.63;0.28;;;;;;;3.42;100.00;99276.13;4971634;28;20303;-81
2021/12/26 01:38:28;;;;;;;0.80;0.28;;;;;;;3.41;100.00;99274.38;4970978;28;20047;-84
2021/12/26 01:41:01;;;;;;;0.15;0.05;;;;;;;3.40;100.00;99276.06;4971477;28;20143;-75
2021/12/26 01:43:35;;;;;;;2.08;0.38;;;;;;;3.33;100.00;99266.44;4967279;28;20110;-76
2021/12/26 01:46:04;;;;;;;0.35;0.10;;;;;;;3.27;100.00;99261.13;4970818;28;20056;-79
2021/12/26 01:48:33;;;;;;;0.10;0.10;;;;;;;3.19;100.00;99265.97;4954840;28;20509;-79
2021/12/26 01:51:02;;;;;;;4.95;0.95;;;;;;;3.18;100.00;99255.69;4958172;28;20055;-78
2021/12/26 01:53:37;;;;;;;0.80;0.10;;;;;;;3.14;100.00;99259.84;4954270;28;20525;-79
2021/12/26 01:56:07;;;;;;;6.50;0.38;;;;;;;3.12;100.00;99243.56;4971222;28;20086;-78
2021/12/26 01:58:38;;;;;;;0.10;0.10;;;;;;;3.02;100.00;99246.59;4966264;28;20051;-78
2021/12/26 02:01:07;;;;;;;0.80;0.52;;;;;;;2.98;100.00;99248.19;4953364;28;20047;-81
2021/12/26 02:03:38;;;;;;;2.20;0.35;;;;;;;2.96;100.00;99248.97;4967137;28;20079;-77
2021/12/26 02:06:07;;;;;;;2.60;0.30;;;;;;;2.96;100.00;99239.59;4967226;28;20055;-79
2021/12/26 02:08:36;;;;;;;1.00;0.40;;;;;;;2.97;100.00;99243.88;4968068;28;20047;-79
2021/12/26 02:11:05;;;;;;;1.77;0.50;;;;;;;2.95;100.00;99242.97;4954422;28;20075;-81
2021/12/26 02:13:37;;;;;;;1.25;0.55;;;;;;;2.90;100.00;99241.94;4973399;28;20513;-77
2021/12/26 02:16:08;;;;;;;4.37;0.30;;;;;;;2.97;100.00;99261.78;4973732;28;20047;-77
2021/12/26 02:18:36;;;;;;;0.80;0.17;;;;;;;3.00;100.00;99261.91;4960326;28;20134;-78
2021/12/26 02:21:17;;;;;;;0.60;0.10;;;;;;;2.99;100.00;99265.25;4973440;28;20105;-75
2021/12/26 02:23:54;;;;;;;0.85;0.15;;;;;;;3.04;100.00;99273.09;4973039;28;20089;-75
2021/12/26 02:29:21;;;;;;;0.35;0.30;;;;;;;3.11;100.00;99280.16;4921495;28;20060;-81
2021/12/26 02:31:50;;;;;;;0.22;0.13;;;;;;;3.17;100.00;99289.75;4963794;28;20079;-77
2021/12/26 02:34:18;;;;;;;0.00;0.00;;;;;;;3.20;100.00;99277.06;4968384;28;20050;-77
2021/12/26 02:36:48;;;;;;;0.20;0.17;;;;;;;3.20;100.00;99270.25;4965780;28;20051;-83
2021/12/26 02:39:17;;;;;;;0.38;0.20;;;;;;;3.20;100.00;99272.81;4969081;28;20134;-84
2021/12/26 02:41:46;;;;;;;0.75;0.38;;;;;;;3.23;100.00;99269.47;4954192;28;20047;-83
2021/12/26 02:44:14;;;;;;;1.75;1.27;;;;;;;3.28;100.00;99267.97;4953095;28;20089;-79
2021/12/26 02:46:56;;;;;;;2.92;1.60;;;;;;;3.33;100.00;99264.75;4967800;28;20062;-81
2021/12/26 02:49:26;;;;;;;1.08;0.90;;;;;;;3.36;100.00;99274.22;4953424;28;20063;-82
2021/12/26 02:51:56;;;;;;;6.68;4.15;;;;;;;3.39;100.00;99284.56;4971445;28;20055;-82
2021/12/26 02:54:25;;;;;;;1.77;1.05;;;;;;;3.41;100.00;99275.22;4961431;28;20070;-83
2021/12/26 02:56:54;;;;;;;2.35;1.27;;;;;;;3.44;100.00;99277.06;4957754;28;20677;-81
2021/12/26 02:59:23;;;;;;;2.70;2.08;;;;;;;3.45;100.00;99271.97;4963218;28;20552;-80
2021/12/26 03:01:51;;;;;;;1.52;1.15;;;;;;;3.45;100.00;99277.09;4954756;28;20536;-82
2021/12/26 03:04:20;;;;;;;4.63;2.88;;;;;;;3.49;100.00;99283.19;4964281;28;20067;-84
2021/12/26 03:06:59;;;;;;;5.45;2.75;;;;;;;3.48;100.00;99282.31;4953926;28;20059;-79
2021/12/26 03:09:31;;;;;;;5.68;0.85;;;;;;;3.48;100.00;99266.97;4972781;28;20067;-79
2021/12/26 03:12:00;;;;;;;2.33;1.13;;;;;;;3.49;100.00;99275.50;4970986;28;20054;-79
2021/12/26 03:14:31;;;;;;;8.32;4.90;;;;;;;3.49;100.00;99285.75;4973777;28;20050;-77
2021/12/26 03:17:03;;;;;;;7.00;3.85;;;;;;;3.47;100.00;99277.16;4961553;28;20509;-80
2021/12/26 03:19:32;;;;;;;2.33;2.03;;;;;;;3.46;100.00;99276.28;4960273;28;20073;-78
2021/12/26 03:22:01;;;;;;;3.72;0.70;;;;;;;3.44;100.00;99269.38;4960098;28;20087;-80
2021/12/26 03:24:32;;;;;;;4.57;0.73;;;;;;;3.42;100.00;99282.09;4972643;28;20456;-82
2021/12/26 03:27:01;;;;;;;2.88;0.95;;;;;;;3.42;100.00;99284.66;4963188;28;20062;-78
2021/12/26 03:29:30;;;;;;;4.35;1.20;;;;;;;3.41;100.00;99285.47;4959429;28;20098;-80
2021/12/26 03:31:58;;;;;;;37.58;11.77;;;;;;;3.39;100.00;99282.00;4971061;28;20489;-80
2021/12/26 03:34:27;;;;;;;14.95;5.28;;;;;;;3.37;100.00;99283.63;4962254;28;20137;-80
2021/12/26 03:36:56;;;;;;;1.23;0.50;;;;;;;3.35;100.00;99269.94;4953005;28;20110;-80
2021/12/26 03:39:25;;;;;;;16.42;5.43;;;;;;;3.32;100.00;99270.69;4953072;28;20569;-79
2021/12/26 03:41:55;;;;;;;3.58;0.85;;;;;;;3.30;100.00;99277.44;4966292;28;20047;-79
2021/12/26 03:44:23;;;;;;;10.98;2.65;;;;;;;3.27;100.00;99277.31;4965580;28;20151;-80
2021/12/26 03:46:52;;;;;;;0.60;0.30;;;;;;;3.21;100.00;99266.00;4953017;28;20051;-79
2021/12/26 03:49:20;;;;;;;0.82;0.40;;;;;;;3.04;100.00;99252.66;4966255;28;20490;-79
2021/12/26 03:51:49;;;;;;;1.75;0.30;;;;;;;2.92;100.00;99258.19;4952220;28;20055;-80
2021/12/26 03:54:17;;;;;;;1.98;0.40;;;;;;;2.86;100.00;99270.72;4952104;28;20560;-77
2021/12/26 03:56:46;;;;;;;2.90;0.50;;;;;;;2.83;100.00;99283.41;4959884;28;20074;-76
2021/12/26 03:59:16;;;;;;;0.47;0.32;;;;;;;2.65;100.00;99258.91;4958285;28;20119;-77
2021/12/26 04:01:45;;;;;;;3.45;0.50;;;;;;;2.72;100.00;99271.09;4955561;28;20097;-77
2021/12/26 04:04:13;;;;;;;0.38;0.22;;;;;;;2.68;100.00;99273.47;4961256;28;20082;-78
2021/12/26 04:06:42;;;;;;;1.40;0.70;;;;;;;2.65;100.00;99269.13;4952174;28;20047;-78
2021/12/26 04:09:10;;;;;;;0.93;0.70;;;;;;;2.60;100.00;99268.09;4952303;28;20114;-79
2021/12/26 04:11:42;;;;;;;1.80;0.35;;;;;;;2.55;100.00;99263.66;4953253;28;20051;-77
2021/12/26 04:14:11;;;;;;;1.55;0.68;;;;;;;2.50;100.00;99258.38;4972318;28;20071;-78
2021/12/26 04:16:41;;;;;;;0.88;0.30;;;;;;;2.45;100.00;99280.28;4974217;28;20078;-80
2021/12/26 04:19:10;;;;;;;1.00;0.45;;;;;;;2.43;100.00;99277.69;4954653;28;20085;-80
2021/12/26 04:21:39;;;;;;;0.50;0.20;;;;;;;2.41;100.00;99269.09;4971939;28;20054;-81
2021/12/26 04:24:08;;;;;;;0.45;0.22;;;;;;;2.42;100.00;99277.63;4969884;28;20106;-82
2021/12/26 04:26:37;;;;;;;0.90;0.47;;;;;;;2.40;100.00;99261.38;4956259;28;20571;-81
2021/12/26 04:29:05;;;;;;;0.40;0.40;;;;;;;2.36;100.00;99262.97;4962943;28;20078;-80
2021/12/26 04:31:34;;;;;;;0.25;0.20;;;;;;;2.38;100.00;99268.09;4956461;28;20090;-82
2021/12/26 04:34:05;;;;;;;0.35;0.35;;;;;;;2.40;100.00;99276.69;4975788;28;20411;-79
2021/12/26 04:36:34;;;;;;;0.52;0.47;;;;;;;2.43;100.00;99269.16;4975457;28;20055;-77
2021/12/26 04:39:02;;;;;;;0.40;0.10;;;;;;;2.40;100.00;99271.59;4969251;28;20464;-79
2021/12/26 04:41:31;;;;;;;1.75;0.25;;;;;;;2.36;100.00;99265.50;4956008;28;20513;-77
2021/12/26 04:44:00;;;;;;;1.05;0.47;;;;;;;2.33;100.00;99267.91;4959166;28;20110;-78
2021/12/26 04:46:29;;;;;;;0.22;0.22;;;;;;;2.30;100.00;99266.13;4965611;28;20489;-80
2021/12/26 04:48:57;;;;;;;0.60;0.32;;;;;;;2.24;100.00;99270.97;4971196;28;20417;-78
2021/12/26 04:51:27;;;;;;;1.88;0.43;;;;;;;2.18;100.00;99255.47;4967732;28;20047;-78
2021/12/26 04:53:56;;;;;;;1.65;0.52;;;;;;;2.15;100.00;99265.53;4959843;28;20450;-77
2021/12/26 04:56:25;;;;;;;3.70;0.60;;;;;;;2.14;100.00;99268.91;4956412;28;20051;-79
2021/12/26 04:58:54;;;;;;;1.05;0.30;;;;;;;2.13;100.00;99267.19;4956271;29;20051;-82
2021/12/26 05:01:23;;;;;;;2.45;0.85;;;;;;;2.09;100.00;99268.72;4963339;28;20149;-78
2021/12/26 05:03:51;;;;;;;0.55;0.30;;;;;;;2.06;100.00;99271.16;4973945;28;20115;-79
2021/12/26 05:06:20;;;;;;;1.42;0.50;;;;;;;2.03;100.00;99275.25;4957413;28;20070;-79
2021/12/26 05:08:50;;;;;;;1.00;0.30;;;;;;;2.00;100.00;99275.16;4957619;28;20143;-84
2021/12/26 05:11:18;;;;;;;0.30;0.15;;;;;;;1.97;100.00;99281.00;4956344;28;20043;-78
2021/12/26 05:13:47;;;;;;;5.03;0.55;;;;;;;1.95;100.00;99281.72;4964443;28;20098;-76
2021/12/26 05:16:15;;;;;;;0.10;0.10;;;;;;;1.91;100.00;99275.66;4963747;28;20051;-80
2021/12/26 05:18:44;;;;;;;0.80;0.17;;;;;;;1.88;100.00;99271.28;4955689;28;20106;-77
2021/12/26 05:21:12;;;;;;;3.42;0.20;;;;;;;1.83;100.00;99270.25;4974558;28;20085;-78
2021/12/26 05:23:41;;;;;;;0.55;0.38;;;;;;;1.81;100.00;99266.75;4973793;28;20051;-77
2021/12/26 05:26:11;;;;;;;0.15;0.10;;;;;;;1.77;100.00;99270.00;4972327;28;20101;-78
2021/12/26 05:28:39;;;;;;;0.70;0.38;;;;;;;1.76;100.00;99278.44;4970085;28;20453;-82
2021/12/26 05:31:08;;;;;;;0.00;0.00;;;;;;;1.79;100.00;99270.06;4966334;28;20105;-82
2021/12/26 05:33:36;;;;;;;0.30;0.20;;;;;;;1.81;100.00;99274.41;4970337;28;20868;-81
2021/12/26 05:36:05;;;;;;;1.00;0.43;;;;;;;1.86;100.00;99270.38;4954306;28;20048;-76
2021/12/26 05:38:33;;;;;;;2.15;0.30;;;;;;;1.89;100.00;99267.91;4968062;28;20055;-77
2021/12/26 05:41:02;;;;;;;0.20;0.20;;;;;;;1.91;100.00;99272.22;4962290;28;20114;-80
2021/12/26 05:43:32;;;;;;;0.10;0.10;;;;;;;1.91;100.00;99268.00;4973642;28;20092;-78
2021/12/26 05:46:00;;;;;;;1.25;0.40;;;;;;;1.92;100.00;99266.31;4954563;28;20130;-78
2021/12/26 05:48:29;;;;;;;0.30;0.20;;;;;;;1.93;100.00;99263.84;4955363;28;20059;-78
2021/12/26 05:50:58;;;;;;;0.30;0.10;;;;;;;1.95;100.00;99262.22;4960694;28;20047;-79
2021/12/26 05:53:26;;;;;;;0.20;0.15;;;;;;;1.98;100.00;99258.91;4964846;28;20121;-79
2021/12/26 05:55:55;;;;;;;0.20;0.20;;;;;;;2.01;100.00;99267.53;4960101;28;20082;-77
2021/12/26 05:58:24;;;;;;;0.77;0.20;;;;;;;2.05;100.00;99276.19;4964508;28;20050;-79
2021/12/26 06:00:54;;;;;;;0.10;0.10;;;;;;;2.08;100.00;99277.19;4956039;28;20047;-77
2021/12/26 06:03:23;;;;;;;0.13;0.03;;;;;;;2.12;100.00;99275.63;4973553;28;20055;-79
2021/12/26 06:05:51;;;;;;;0.85;0.52;;;;;;;2.13;100.00;99282.47;4972784;28;20047;-79
2021/12/26 06:08:20;;;;;;;0.25;0.20;;;;;;;2.08;100.00;99278.84;4960746;28;20440;-80
2021/12/26 06:10:49;;;;;;;0.35;0.10;;;;;;;2.03;100.00;99278.69;4961034;28;20097;-80
2021/12/26 06:13:17;;;;;;;0.17;0.10;;;;;;;2.02;100.00;99278.63;4972496;28;20057;-81
2021/12/26 06:15:46;;;;;;;0.10;0.10;;;;;;;2.01;100.00;99281.97;4963430;28;20089;-80
2021/12/26 06:18:16;;;;;;;0.35;0.22;;;;;;;1.95;100.00;99279.19;4957461;28;20102;-78
2021/12/26 06:20:45;;;;;;;1.08;0.08;;;;;;;1.96;100.00;99283.47;4970526;28;20493;-78
2021/12/26 06:23:14;;;;;;;0.90;0.25;;;;;;;1.95;100.00;99287.72;4973383;28;20116;-78
2021/12/26 06:25:42;;;;;;;0.85;0.15;;;;;;;1.89;100.00;99295.97;4973234;28;20058;-79
2021/12/26 06:28:11;;;;;;;0.70;0.20;;;;;;;1.86;100.00;99290.75;4941150;28;20073;-82
2021/12/26 06:30:39;;;;;;;0.35;0.22;;;;;;;1.87;100.00;99289.09;4953960;28;20413;-81
2021/12/26 06:33:08;;;;;;;1.55;0.63;;;;;;;1.88;100.00;99290.84;4953815;28;20093;-78
2021/12/26 06:35:38;;;;;;;0.75;0.32;;;;;;;1.83;100.00;99283.00;4968309;28;20057;-78
2021/12/26 06:38:06;;;;;;;2.53;0.22;;;;;;;1.78;100.00;99281.91;4954053;28;20051;-79
2021/12/26 06:40:35;;;;;;;3.05;0.10;;;;;;;1.77;100.00;99282.75;4968972;28;20437;-77
2021/12/26 06:43:05;;;;;;;0.93;0.40;;;;;;;1.79;100.00;99280.28;4973232;28;20464;-78
2021/12/26 06:45:34;;;;;;;1.17;0.65;;;;;;;1.81;100.00;99281.16;4973108;28;20584;-78
2021/12/26 06:48:05;;;;;;;0.50;0.13;;;;;;;1.76;100.00;99280.13;4960288;28;20130;-77
2021/12/26 06:50:35;;;;;;;0.30;0.20;;;;;;;1.75;100.00;99280.94;4959859;28;20682;-82
2021/12/26 06:53:05;;;;;;;1.42;0.20;;;;;;;1.75;100.00;99283.50;4972577;28;20039;-79
2021/12/26 06:55:34;;;;;;;3.22;0.30;;;;;;;1.74;100.00;99290.28;4973480;28;20094;-82
2021/12/26 06:58:02;;;;;;;0.30;0.20;;;;;;;1.77;100.00;99281.88;4969318;28;20109;-77
2021/12/26 07:00:31;;;;;;;0.30;0.10;;;;;;;1.79;100.00;99288.78;4955565;28;20047;-77
2021/12/26 07:03:00;;;;;;;4.70;0.75;;;;;;;1.79;100.00;99276.03;4968514;28;20138;-80
2021/12/26 07:05:28;;;;;;;0.55;0.25;;;;;;;1.80;100.00;99277.75;4962223;28;20068;-78
2021/12/26 07:07:57;;;;;;;0.75;0.20;;;;;;;1.78;100.00;99274.28;4971873;28;20054;-80
2021/12/26 07:10:27;;;;;;;1.10;0.30;;;;;;;1.77;100.00;99280.19;4953417;28;20082;-78
2021/12/26 07:12:56;;;;;;;1.25;0.50;;;;;;;1.67;100.00;99272.97;4953114;28;20047;-78
2021/12/26 07:15:25;;;;;;;3.15;0.13;;;;;;;1.68;100.00;99279.81;4952821;28;20048;-77
2021/12/26 07:17:54;;;;;;;0.47;0.10;;;;;;;1.68;100.00;99275.59;4954811;28;20090;-79
2021/12/26 07:20:22;;;;;;;1.55;0.95;;;;;;;1.67;100.00;99278.94;4955355;28;20051;-77
2021/12/26 07:22:50;;;;;;;2.60;0.30;;;;;;;1.67;100.00;99285.72;4945388;28;20051;-80
2021/12/26 07:25:19;;;;;;;0.75;0.30;;;;;;;1.69;100.00;99279.00;4960462;28;20103;-80
2021/12/26 07:27:49;;;;;;;1.70;0.17;;;;;;;1.70;100.00;99279.91;4966254;28;20086;-79
2021/12/26 07:30:18;;;;;;;2.05;0.35;;;;;;;1.68;100.00;99273.03;4952865;28;20051;-80
2021/12/26 07:32:46;;;;;;;0.20;0.20;;;;;;;1.69;100.00;99273.91;4962360;28;20105;-79
2021/12/26 07:35:15;;;;;;;0.50;0.30;;;;;;;1.72;100.00;99275.69;4969094;28;20046;-80
2021/12/26 07:37:43;;;;;;;0.80;0.10;;;;;;;1.73;100.00;99280.88;4960686;28;20051;-80
2021/12/26 07:40:13;;;;;;;0.20;0.00;;;;;;;1.70;100.00;99279.91;4972211;28;20078;-83
2021/12/26 07:42:42;;;;;;;4.20;0.35;;;;;;;1.65;100.00;99277.16;4971952;28;20098;-81
2021/12/26 07:45:13;;;;;;;2.42;0.40;;;;;;;1.60;100.00;99279.47;4972487;28;20053;-80
2021/12/26 07:47:42;;;;;;;2.55;0.30;;;;;;;1.62;100.00;99279.56;4939642;28;20091;-83
2021/12/26 07:50:11;;;;;;;1.02;0.40;;;;;;;1.69;100.00;99284.09;4952578;28;20508;-80
2021/12/26 07:52:42;;;;;;;0.40;0.13;;;;;;;1.71;100.00;99272.28;4956313;28;20097;-79
2021/12/26 07:55:13;;;;;;;0.55;0.30;;;;;;;1.76;100.00;99273.34;4963782;28;20051;-85
2021/12/26 07:57:44;;;;;;;1.98;0.25;;;;;;;1.77;100.00;99285.28;4973580;28;20062;-85
2021/12/26 08:00:16;;;;;;;1.95;0.45;;;;;;;1.73;100.00;99280.88;4955908;28;20131;-84
2021/12/26 08:02:47;;;;;;;0.00;0.00;;;;;;;1.63;100.00;99263.47;4970809;28;20051;-82
2021/12/26 08:05:16;;;;;;;0.35;0.15;;;;;;;1.53;100.00;99266.44;4966186;28;20106;-85
2021/12/26 08:07:45;;;;;;;1.55;0.38;;;;;;;1.45;100.00;99259.34;4967957;28;20496;-81
2021/12/26 08:10:13;;;;;;;4.28;0.63;;;;;;;1.44;100.00;99262.72;4954516;28;20079;-85
2021/12/26 08:12:42;;;;;;;1.15;0.25;;;;;;;1.41;100.00;99260.00;4965301;28;20050;-82
2021/12/26 08:15:11;;;;;;;0.43;0.10;;;;;;;1.39;100.00;99263.31;4958324;28;20126;-78
2021/12/26 08:17:41;;;;;;;0.52;0.00;;;;;;;1.34;100.00;99265.66;4961906;28;20110;-83
2021/12/26 08:20:11;;;;;;;0.43;0.20;;;;;;;1.34;100.00;99260.56;4957868;28;20083;-80
2021/12/26 08:22:40;;;;;;;0.63;0.38;;;;;;;1.19;100.00;99242.97;4958197;28;20070;-85
2021/12/26 08:25:10;;;;;;;0.10;0.10;;;;;;;1.19;100.00;99249.72;4973146;28;20043;-86
2021/12/26 08:27:39;;;;;;;0.00;0.00;;;;;;;1.17;100.00;99248.78;4970123;28;20507;-81
2021/12/26 08:30:09;;;;;;;0.90;0.30;;;;;;;1.18;100.00;99241.22;4956736;28;20081;-85
2021/12/26 08:32:39;;;;;;;0.85;0.40;;;;;;;1.17;100.00;99234.38;4964805;28;20134;-81
2021/12/26 08:35:11;;;;;;;1.45;0.17;;;;;;;1.14;100.00;99236.78;4968630;28;20056;-78
2021/12/26 08:37:40;;;;;;;1.98;0.35;;;;;;;1.06;100.00;99227.97;4965034;28;20062;-83
2021/12/26 08:40:10;;;;;;;0.47;0.40;;;;;;;1.04;100.00;99229.56;4953225;28;20058;-82
2021/12/26 08:42:38;;;;;;;0.00;0.00;;;;;;;0.93;100.00;99213.81;4962145;28;20074;-83
2021/12/26 08:45:07;;;;;;;0.65;0.03;;;;;;;0.93;100.00;99218.91;4976113;28;20094;-80
2021/12/26 08:47:36;;;;;;;3.10;0.30;;;;;;;0.88;100.00;99233.13;4973848;28;20089;-82
2021/12/26 08:50:06;;;;;;;1.88;0.28;;;;;;;0.89;100.00;99234.84;4968404;28;20047;-81
2021/12/26 08:52:36;;;;;;;0.30;0.30;;;;;;;0.94;100.00;99246.13;4969117;28;20515;-87
2021/12/26 08:55:06;;;;;;;1.65;0.15;;;;;;;1.01;100.00;99247.28;4963743;28;20051;-81
2021/12/26 08:57:34;;;;;;;0.77;0.20;;;;;;;1.06;100.00;99242.38;4952291;28;20055;-83
2021/12/26 09:00:06;;;;;;;0.10;0.08;;;;;;;1.03;100.00;99233.81;4966879;28;20043;-84
2021/12/26 09:02:34;;;;;;;1.33;0.30;;;;;;;0.95;100.00;99224.94;4963864;28;20085;-79
2021/12/26 09:05:03;;;;;;;1.48;0.30;;;;;;;0.91;100.00;99223.06;4957384;28;20102;-81
2021/12/26 09:07:32;;;;;;;0.00;0.00;;;;;;;0.86;100.00;99219.47;4961340;28;20098;-80
2021/12/26 09:10:02;;;;;;;0.32;0.10;;;;;;;0.81;100.00;99220.94;4952773;28;20051;-80
2021/12/26 09:12:31;;;;;;;0.00;0.00;;;;;;;0.81;100.00;99221.81;4964287;28;20488;-79
2021/12/26 09:15:10;;;;;;;3.22;0.50;;;;;;;0.87;100.00;99216.13;4959493;28;20055;-79
2021/12/26 09:17:40;;;;;;;0.35;0.10;;;;;;;0.92;100.00;99219.72;4955028;28;20047;-79
2021/12/26 09:20:10;;;;;;;0.63;0.10;;;;;;;0.98;100.00;99214.88;4967678;28;20078;-80
2021/12/26 09:22:40;;;;;;;0.00;0.00;;;;;;;1.04;100.00;99217.69;4964012;28;20055;-80
2021/12/26 09:25:12;;;;;;;0.20;0.20;;;;;;;1.10;100.00;99209.47;4964304;28;20053;-83
2021/12/26 09:27:40;;;;;;;1.30;0.22;;;;;;;1.12;100.00;99196.78;4972910;28;20058;-78
2021/12/26 09:30:11;;;;;;;3.20;0.35;;;;;;;1.10;100.00;99194.19;4958259;28;20668;-78
2021/12/26 09:32:40;;;;;;;1.23;0.68;;;;;;;1.03;100.00;99182.88;4955811;28;20047;-82
2021/12/26 09:35:09;;;;;;;1.13;0.20;;;;;;;0.97;100.00;99181.72;4969023;28;20046;-78
2021/12/26 09:37:38;;;;;;;1.95;0.40;;;;;;;0.93;100.00;99196.00;4962603;28;20114;-80
2021/12/26 09:40:08;;;;;;;1.08;0.63;;;;;;;0.86;100.00;99183.81;4960806;28;20047;-79
2021/12/26 09:42:39;;;;;;;1.80;0.40;;;;;;;0.76;100.00;99181.69;4971724;28;20046;-80
2021/12/26 09:45:09;;;;;;;3.78;1.00;;;;;;;0.66;100.00;99169.34;4974698;28;20114;-79
2021/12/26 09:47:39;;;;;;;1.20;0.25;;;;;;;0.60;100.00;99167.44;4956759;28;20050;-80
2021/12/26 09:50:09;;;;;;;2.30;0.32;;;;;;;0.57;100.00;99174.91;4954941;29;20113;-79
2021/12/26 09:52:41;;;;;;;0.98;0.30;;;;;;;0.56;100.00;99178.28;4967671;28;20416;-78
2021/12/26 09:55:10;;;;;;;0.87;0.30;;;;;;;0.50;100.00;99183.09;4954730;28;20102;-78
2021/12/26 09:57:41;;;;;;;0.82;0.25;;;;;;;0.50;100.00;99189.03;4954621;28;20296;-78
2021/12/26 10:00:26;;;;;;;0.52;0.13;;;;;;;0.52;100.00;99189.97;4954651;28;20362;-80
2021/12/26 10:03:17;;;;;;;2.58;0.30;;;;;;;0.49;100.00;99202.56;4969311;28;20504;-77
2021/12/26 10:06:09;;;;;;;0.47;0.10;;;;;;;0.55;100.00;99207.94;4973689;28;20074;-79
2021/12/26 10:08:54;;;;;;;1.65;0.25;;;;;;;0.58;100.00;99210.63;4968515;28;20497;-77
2021/12/26 10:11:25;;;;;;;4.38;0.25;;;;;;;0.59;100.00;99212.34;4954636;28;20055;-80
2021/12/26 10:13:58;;;;;;;0.00;0.00;;;;;;;0.60;100.00;99216.66;4967962;28;20059;-78
2021/12/26 10:16:29;;;;;;;3.22;0.10;;;;;;;0.62;100.00;99209.97;4954589;28;20059;-77
2021/12/26 10:18:58;;;;;;;0.20;0.10;;;;;;;0.66;100.00;99205.00;4961619;28;20078;-78
2021/12/26 10:21:33;;;;;;;3.00;0.50;;;;;;;0.69;100.00;99205.13;4964427;28;20055;-78
2021/12/26 10:24:05;;;;;;;0.50;0.47;;;;;;;0.73;100.00;99207.00;4972412;28;20086;-76
2021/12/26 10:26:36;;;;;;;1.97;0.17;;;;;;;0.77;100.00;99203.78;4965489;28;20055;-77
2021/12/26 10:29:25;;;;;;;0.55;0.20;;;;;;;0.78;100.00;99208.06;4960143;28;20059;-77
2021/12/26 10:31:56;;;;;;;0.10;0.00;;;;;;;0.80;100.00;99220.09;4954536;28;20074;-77
2021/12/26 10:34:28;;;;;;;1.23;0.17;;;;;;;0.82;100.00;99225.22;4955738;28;20091;-77
2021/12/26 10:36:59;;;;;;;0.80;0.45;;;;;;;0.86;100.00;99224.56;4955988;28;20051;-77
2021/12/26 10:39:30;;;;;;;0.85;0.22;;;;;;;0.87;100.00;99220.31;4955120;28;20086;-78
2021/12/26 10:42:01;;;;;;;0.65;0.13;;;;;;;0.87;100.00;99228.84;4954123;28;20050;-79
2021/12/26 10:44:37;;;;;;;0.40;0.15;;;;;;;0.89;100.00;99224.66;4961197;28;20078;-78
2021/12/26 10:47:09;;;;;;;0.88;0.38;;;;;;;0.91;100.00;99223.06;4959512;28;20055;-80
2021/12/26 10:49:49;;;;;;;0.17;0.15;;;;;;;0.88;100.00;99227.19;4972474;28;20449;-79
2021/12/26 10:52:23;;;;;;;0.63;0.22;;;;;;;0.83;100.00;99220.19;4966443;28;20515;-77
2021/12/26 10:54:57;;;;;;;0.40;0.20;;;;;;;0.75;100.00;99215.56;4973347;28;20047;-78
2021/12/26 10:57:31;;;;;;;0.95;0.20;;;;;;;0.73;100.00;99224.81;4959896;28;20129;-82
2021/12/26 11:00:11;;;;;;;0.65;0.40;;;;;;;0.71;100.00;99221.31;4940539;28;20133;-79
2021/12/26 11:02:41;;;;;;;1.33;0.20;;;;;;;0.62;100.00;99230.31;5206608;23;20066;-78
2021/12/26 11:05:12;;;;;;;0.15;0.13;;;;;;;0.64;100.00;99225.28;4990415;28;20050;-78
2021/12/26 11:07:59;;;;;;;1.58;0.50;;;;;;;0.63;100.00;99241.38;4991383;28;20089;-78
2021/12/26 11:10:30;;;;;;;0.10;0.10;;;;;;;0.61;100.00;99238.75;4991465;28;20109;-79
2021/12/26 11:13:00;;;;;;;0.43;0.20;;;;;;;0.49;100.00;99238.19;4989881;28;20121;-79
2021/12/26 11:15:33;;;;;;;2.83;0.10;;;;;;;0.47;100.00;99249.13;4991474;28;20051;-79
2021/12/26 11:18:06;;;;;;;1.15;0.30;;;;;;;0.46;100.00;99252.44;4991477;28;20050;-83
2021/12/26 11:20:37;;;;;;;0.65;0.17;;;;;;;0.38;100.00;99260.59;4988452;28;20047;-78
2021/12/26 11:23:10;;;;;;;3.17;0.45;;;;;;;0.35;100.00;99251.97;4988900;28;20054;-79
2021/12/26 11:25:41;;;;;;;3.45;0.28;;;;;;;0.35;100.00;99245.22;4981081;28;20097;-79
2021/12/26 11:28:26;;;;;;;0.47;0.10;;;;;;;0.36;100.00;99251.16;4984639;28;20567;-79
2021/12/26 11:30:57;;;;;;;2.00;0.20;;;;;;;0.39;100.00;99243.66;4981979;28;20552;-78
2021/12/26 11:33:26;;;;;;;0.10;0.10;;;;;;;0.43;100.00;99245.56;4989114;28;20050;-79
2021/12/26 11:35:56;;;;;;;1.20;0.22;;;;;;;0.47;100.00;99244.03;4981158;28;20129;-77
2021/12/26 11:38:26;;;;;;;1.85;0.25;;;;;;;0.52;100.00;99243.41;4986859;28;20078;-80
2021/12/26 11:40:58;;;;;;;0.08;0.08;;;;;;;0.55;100.00;99242.69;4980034;28;20506;-79
2021/12/26 11:43:53;;;;;;;0.20;0.15;;;;;;;0.60;100.00;99244.66;4992662;28;20554;-81
2021/12/26 11:46:42;;;;;;;1.65;0.20;;;;;;;0.56;100.00;99249.53;4976021;28;20125;-79
2021/12/26 11:49:45;;;;;;;0.13;0.05;;;;;;;0.50;100.00;99241.63;4978057;28;20238;-79
2021/12/26 11:52:42;;;;;;;0.65;0.43;;;;;;;0.58;100.00;99250.47;4977833;28;20097;-79